Time;durP1;ratioP1;P1;durP2;ratioP2;P2;SDS_P1;SDS_P2;PMS_P1;PMS_P2;Temp;Humidity;BMP_temperature;BMP_pressure;BME280_temperature;BME280_humidity;BME280_pressure;Samples;Min_cycle;Max_cycle;Signal;HPM_P1;HPM_P2
2022/06/29 00:02:16;;;;;;;1.90;1.15;;;;;;;;;;5104896;28;20405;-52
2022/06/29 00:04:42;;;;;;;1.40;1.30;;;;;;;;;;5103432;28;20052;-53
2022/06/29 00:07:07;;;;;;;2.90;0.90;;;;;;;;;;5103083;28;20048;-52
2022/06/29 00:09:32;;;;;;;2.30;1.35;;;;;;;;;;5105336;28;20477;-50
2022/06/29 00:11:58;;;;;;;2.17;1.00;;;;;;;;;;5100985;28;20852;-48
2022/06/29 00:14:23;;;;;;;4.57;1.92;;;;;;;;;;5104268;28;20763;-52
2022/06/29 00:16:49;;;;;;;2.88;1.50;;;;;;;;;;5105693;28;20047;-50
2022/06/29 00:19:14;;;;;;;7.65;2.25;;;;;;;;;;5104880;28;20545;-50
2022/06/29 00:21:39;;;;;;;2.67;1.67;;;;;;;;;;5099726;28;20414;-51
2022/06/29 00:24:05;;;;;;;2.28;1.05;;;;;;;;;;5103419;28;20518;-51
2022/06/29 00:26:30;;;;;;;4.78;2.17;;;;;;;;;;5109523;28;20043;-47
2022/06/29 00:28:55;;;;;;;1.27;0.95;;;;;;;;;;5110094;28;20071;-51
2022/06/29 00:31:21;;;;;;;9.65;2.20;;;;;;;;;;5104898;28;20070;-46
2022/06/29 00:33:46;;;;;;;3.47;1.20;;;;;;;;;;5108892;28;20126;-51
2022/06/29 00:36:11;;;;;;;1.65;1.05;;;;;;;;;;5108187;28;20063;-50
2022/06/29 00:38:37;;;;;;;3.30;0.95;;;;;;;;;;5109721;28;20055;-52
2022/06/29 00:41:02;;;;;;;2.17;1.05;;;;;;;;;;5107011;28;20039;-50
2022/06/29 00:43:27;;;;;;;1.30;1.08;;;;;;;;;;5089706;28;20048;-51
2022/06/29 00:45:53;;;;;;;3.90;1.48;;;;;;;;;;5107307;28;20455;-51
2022/06/29 00:48:18;;;;;;;1.85;1.10;;;;;;;;;;5107148;28;20101;-52
2022/06/29 00:50:45;;;;;;;5.18;1.05;;;;;;;;;;5108672;28;20044;-48
2022/06/29 00:53:13;;;;;;;1.60;0.95;;;;;;;;;;5106798;28;20041;-49
2022/06/29 00:55:41;;;;;;;1.70;1.17;;;;;;;;;;5108552;28;20076;-48
2022/06/29 00:58:08;;;;;;;5.28;1.40;;;;;;;;;;5105422;28;20504;-50
2022/06/29 01:00:34;;;;;;;4.63;1.92;;;;;;;;;;5107513;28;20096;-48
2022/06/29 01:03:00;;;;;;;3.70;1.80;;;;;;;;;;5106237;28;20130;-52
2022/06/29 01:05:26;;;;;;;10.07;1.58;;;;;;;;;;5106836;28;20040;-52
2022/06/29 01:07:52;;;;;;;1.73;1.10;;;;;;;;;;5106730;28;20054;-51
2022/06/29 01:10:18;;;;;;;4.93;2.03;;;;;;;;;;5107962;28;20055;-48
2022/06/29 01:12:43;;;;;;;11.00;2.58;;;;;;;;;;5107701;28;20506;-51
2022/06/29 01:15:09;;;;;;;5.30;2.42;;;;;;;;;;5105131;28;20524;-52
2022/06/29 01:17:34;;;;;;;8.27;1.60;;;;;;;;;;5107167;28;20502;-51
2022/06/29 01:20:00;;;;;;;3.17;1.20;;;;;;;;;;5109064;28;20070;-51
2022/06/29 01:22:27;;;;;;;1.63;1.52;;;;;;;;;;5106464;28;20048;-52
2022/06/29 01:24:53;;;;;;;4.63;2.90;;;;;;;;;;5105517;28;20540;-51
2022/06/29 01:27:19;;;;;;;6.65;2.47;;;;;;;;;;5107333;28;20052;-54
2022/06/29 01:29:44;;;;;;;2.15;1.58;;;;;;;;;;5105982;28;20040;-50
2022/06/29 01:32:10;;;;;;;2.53;1.65;;;;;;;;;;5108011;28;20054;-52
2022/06/29 01:34:36;;;;;;;4.68;1.25;;;;;;;;;;5107668;28;20052;-52
2022/06/29 01:37:02;;;;;;;1.45;0.98;;;;;;;;;;5107235;28;20073;-52
2022/06/29 01:39:27;;;;;;;4.07;1.52;;;;;;;;;;5107850;28;20054;-52
2022/06/29 01:41:53;;;;;;;2.40;1.80;;;;;;;;;;5102692;28;20043;-52
2022/06/29 01:44:18;;;;;;;2.53;1.23;;;;;;;;;;5107917;28;20047;-50
2022/06/29 01:46:43;;;;;;;14.60;1.70;;;;;;;;;;5108101;28;20395;-54
2022/06/29 01:49:09;;;;;;;2.40;1.35;;;;;;;;;;5104190;28;20380;-53
2022/06/29 01:51:34;;;;;;;1.92;1.08;;;;;;;;;;5104558;28;20035;-54
2022/06/29 01:54:00;;;;;;;2.63;1.40;;;;;;;;;;5104883;28;20411;-50
2022/06/29 01:56:25;;;;;;;3.15;1.67;;;;;;;;;;5104255;28;20047;-54
2022/06/29 01:58:51;;;;;;;7.22;1.25;;;;;;;;;;5108972;28;20040;-49
2022/06/29 02:01:16;;;;;;;3.65;1.58;;;;;;;;;;5105648;28;20429;-49
2022/06/29 02:03:41;;;;;;;5.43;2.00;;;;;;;;;;5102870;28;20040;-51
2022/06/29 02:06:07;;;;;;;2.08;1.20;;;;;;;;;;5105570;28;20048;-53
2022/06/29 02:08:32;;;;;;;2.63;1.33;;;;;;;;;;5106624;28;20558;-49
2022/06/29 02:10:58;;;;;;;1.77;0.93;;;;;;;;;;5107109;28;20046;-51
2022/06/29 02:13:23;;;;;;;3.35;1.08;;;;;;;;;;5103440;28;20095;-51
2022/06/29 02:15:49;;;;;;;4.40;1.63;;;;;;;;;;5105516;28;20043;-54
2022/06/29 02:18:14;;;;;;;2.60;1.00;;;;;;;;;;5107814;28;20391;-52
2022/06/29 02:20:39;;;;;;;4.90;1.17;;;;;;;;;;5106047;28;20047;-51
2022/06/29 02:23:05;;;;;;;3.15;1.63;;;;;;;;;;5105103;28;20039;-52
2022/06/29 02:25:30;;;;;;;0.82;0.50;;;;;;;;;;5105029;28;20388;-52
2022/06/29 02:27:56;;;;;;;2.22;0.90;;;;;;;;;;5107575;28;20040;-54
2022/06/29 02:34:43;;;;;;;2.25;1.25;;;;;;;;;;5107405;28;20056;-50
2022/06/29 02:35:54;;;;;;;5.03;1.63;;;;;;;;;;5106311;28;20728;-51
2022/06/29 02:38:19;;;;;;;6.65;1.80;;;;;;;;;;5098586;28;20036;-52
2022/06/29 02:40:45;;;;;;;2.38;0.95;;;;;;;;;;5100165;28;20971;-52
2022/06/29 02:43:10;;;;;;;2.25;1.42;;;;;;;;;;5103088;28;20046;-52
2022/06/29 02:45:35;;;;;;;2.15;1.42;;;;;;;;;;5099818;28;20028;-53
2022/06/29 02:48:01;;;;;;;1.42;0.68;;;;;;;;;;5105432;28;20044;-50
2022/06/29 02:50:26;;;;;;;4.68;1.33;;;;;;;;;;5105120;28;20044;-49
2022/06/29 02:52:51;;;;;;;2.25;1.23;;;;;;;;;;5104401;28;20054;-53
2022/06/29 02:55:17;;;;;;;2.33;1.63;;;;;;;;;;5105860;28;20048;-52
2022/06/29 02:57:42;;;;;;;4.15;1.83;;;;;;;;;;5101308;28;20047;-49
2022/06/29 03:00:08;;;;;;;7.20;2.70;;;;;;;;;;5105456;28;20134;-50
2022/06/29 03:02:33;;;;;;;3.13;1.77;;;;;;;;;;5107260;28;20067;-52
2022/06/29 03:04:59;;;;;;;3.50;2.55;;;;;;;;;;5104812;28;20116;-54
2022/06/29 03:07:25;;;;;;;3.05;1.58;;;;;;;;;;5100130;28;20758;-52
2022/06/29 03:09:50;;;;;;;1.20;0.95;;;;;;;;;;5099513;28;20124;-49
2022/06/29 03:12:15;;;;;;;9.07;1.60;;;;;;;;;;5103555;28;20036;-54
2022/06/29 03:14:41;;;;;;;3.80;1.25;;;;;;;;;;5105244;28;20514;-52
2022/06/29 03:17:06;;;;;;;3.20;1.63;;;;;;;;;;5105213;28;20126;-54
2022/06/29 03:19:31;;;;;;;3.55;1.88;;;;;;;;;;5097381;28;20050;-50
2022/06/29 03:21:57;;;;;;;2.08;1.45;;;;;;;;;;5103431;28;20051;-49
2022/06/29 03:24:23;;;;;;;3.60;1.42;;;;;;;;;;5104758;28;20118;-49
2022/06/29 03:26:48;;;;;;;2.40;1.35;;;;;;;;;;5105597;28;20495;-50
2022/06/29 03:29:14;;;;;;;3.28;1.35;;;;;;;;;;5105718;28;20062;-53
2022/06/29 03:31:39;;;;;;;1.40;1.27;;;;;;;;;;5104783;28;20511;-53
2022/06/29 03:34:04;;;;;;;2.75;1.73;;;;;;;;;;5105536;28;20043;-50
2022/06/29 03:36:30;;;;;;;3.47;1.67;;;;;;;;;;5105364;28;20135;-53
2022/06/29 03:38:55;;;;;;;6.22;2.38;;;;;;;;;;5103967;28;20402;-53
2022/06/29 03:41:20;;;;;;;11.23;2.55;;;;;;;;;;5104473;28;20039;-50
2022/06/29 03:43:46;;;;;;;1.48;1.15;;;;;;;;;;5103871;28;20486;-49
2022/06/29 03:46:11;;;;;;;19.58;2.10;;;;;;;;;;5104163;28;20047;-52
2022/06/29 03:48:37;;;;;;;2.88;1.98;;;;;;;;;;5103616;28;20556;-50
2022/06/29 03:51:02;;;;;;;7.10;1.90;;;;;;;;;;5104541;28;20858;-50
2022/06/29 03:53:27;;;;;;;2.90;1.58;;;;;;;;;;5102150;28;20104;-50
2022/06/29 03:55:53;;;;;;;2.72;1.73;;;;;;;;;;5102452;28;20075;-52
2022/06/29 03:58:19;;;;;;;3.08;0.90;;;;;;;;;;5103114;28;20043;-54
2022/06/29 04:00:44;;;;;;;1.55;1.23;;;;;;;;;;5104634;28;20540;-53
2022/06/29 04:03:09;;;;;;;2.80;1.95;;;;;;;;;;5104840;28;20458;-53
2022/06/29 04:05:35;;;;;;;1.85;0.85;;;;;;;;;;5102540;28;20040;-50
2022/06/29 04:08:00;;;;;;;5.45;1.63;;;;;;;;;;5102233;28;20185;-51
2022/06/29 04:10:25;;;;;;;2.40;2.17;;;;;;;;;;5103277;28;20044;-52
2022/06/29 04:12:51;;;;;;;2.40;1.63;;;;;;;;;;5102458;28;20567;-46
2022/06/29 04:15:16;;;;;;;3.03;1.48;;;;;;;;;;5104826;28;20082;-51
2022/06/29 04:17:41;;;;;;;6.68;6.10;;;;;;;;;;5103557;28;20100;-50
2022/06/29 04:20:07;;;;;;;3.80;3.38;;;;;;;;;;5105276;28;20134;-51
2022/06/29 04:22:32;;;;;;;3.28;1.67;;;;;;;;;;5101525;28;20115;-51
2022/06/29 04:24:58;;;;;;;1.92;0.95;;;;;;;;;;5103470;28;20447;-51
2022/06/29 04:27:24;;;;;;;3.75;1.50;;;;;;;;;;5103861;28;20126;-52
2022/06/29 04:29:49;;;;;;;1.67;1.00;;;;;;;;;;5103079;28;20142;-51
2022/06/29 04:32:14;;;;;;;2.85;1.80;;;;;;;;;;5101571;28;20051;-52
2022/06/29 04:34:40;;;;;;;2.10;1.55;;;;;;;;;;5102923;28;20060;-52
2022/06/29 04:37:05;;;;;;;1.02;0.80;;;;;;;;;;5104874;28;20036;-53
2022/06/29 04:39:31;;;;;;;3.92;2.22;;;;;;;;;;5104986;28;20063;-49
2022/06/29 04:41:56;;;;;;;2.85;1.63;;;;;;;;;;5103353;28;20041;-49
2022/06/29 04:44:21;;;;;;;7.72;3.10;;;;;;;;;;5104448;28;20559;-49
2022/06/29 04:46:47;;;;;;;4.35;3.17;;;;;;;;;;5102332;28;20042;-52
2022/06/29 04:49:12;;;;;;;3.38;1.60;;;;;;;;;;5099960;28;20746;-52
2022/06/29 04:51:38;;;;;;;3.95;2.17;;;;;;;;;;5102344;28;20070;-51
2022/06/29 04:54:03;;;;;;;3.45;1.65;;;;;;;;;;5105263;28;20502;-54
2022/06/29 04:56:30;;;;;;;1.92;1.30;;;;;;;;;;5103661;28;20083;-51
2022/06/29 04:58:57;;;;;;;5.47;2.45;;;;;;;;;;5095525;28;20108;-51
2022/06/29 05:01:23;;;;;;;1.98;1.42;;;;;;;;;;5099476;28;20084;-47
2022/06/29 05:03:49;;;;;;;3.33;2.05;;;;;;;;;;5103081;28;20486;-53
2022/06/29 05:06:14;;;;;;;4.90;1.80;;;;;;;;;;5100337;28;20071;-50
2022/06/29 05:08:39;;;;;;;3.28;1.90;;;;;;;;;;5105262;28;20051;-53
2022/06/29 05:11:05;;;;;;;3.60;1.48;;;;;;;;;;5103079;28;20054;-50
2022/06/29 05:13:30;;;;;;;8.95;1.70;;;;;;;;;;5105747;28;20063;-52
2022/06/29 05:15:55;;;;;;;6.72;1.98;;;;;;;;;;5109088;28;20040;-52
2022/06/29 05:18:21;;;;;;;4.85;2.08;;;;;;;;;;5106181;28;20667;-49
2022/06/29 05:20:46;;;;;;;4.18;2.70;;;;;;;;;;5106224;28;20594;-48
2022/06/29 05:23:12;;;;;;;6.25;3.75;;;;;;;;;;5101112;28;20046;-52
2022/06/29 05:25:37;;;;;;;2.78;1.42;;;;;;;;;;5108314;28;20062;-54
2022/06/29 05:28:03;;;;;;;10.35;2.97;;;;;;;;;;5101109;28;20050;-50
2022/06/29 05:30:28;;;;;;;2.95;1.80;;;;;;;;;;5108205;28;20466;-51
2022/06/29 05:32:53;;;;;;;3.15;1.95;;;;;;;;;;5089850;28;20124;-52
2022/06/29 05:35:19;;;;;;;2.90;1.70;;;;;;;;;;5101105;28;20052;-50
2022/06/29 05:37:44;;;;;;;5.47;2.03;;;;;;;;;;5101684;28;20036;-52
2022/06/29 05:40:10;;;;;;;3.50;2.17;;;;;;;;;;5106938;28;20060;-49
2022/06/29 05:42:35;;;;;;;18.77;3.20;;;;;;;;;;5107474;28;20494;-51
2022/06/29 05:45:00;;;;;;;1.90;1.73;;;;;;;;;;5103772;28;20083;-53
2022/06/29 05:47:26;;;;;;;7.40;1.92;;;;;;;;;;5105760;28;20055;-51
2022/06/29 05:49:51;;;;;;;2.42;1.50;;;;;;;;;;5107432;28;20043;-52
2022/06/29 05:52:17;;;;;;;4.60;1.73;;;;;;;;;;5106176;28;20047;-51
2022/06/29 05:54:42;;;;;;;10.32;1.92;;;;;;;;;;5107628;28;20813;-52
2022/06/29 05:57:07;;;;;;;9.45;1.83;;;;;;;;;;5106480;28;20039;-52
2022/06/29 05:59:33;;;;;;;5.47;2.35;;;;;;;;;;5105168;28;20024;-49
2022/06/29 06:01:58;;;;;;;7.60;2.20;;;;;;;;;;5107579;28;20039;-52
2022/06/29 06:04:23;;;;;;;3.80;2.83;;;;;;;;;;5104546;28;20032;-53
2022/06/29 06:06:49;;;;;;;3.72;1.83;;;;;;;;;;5106611;28;20055;-53
2022/06/29 06:09:14;;;;;;;2.03;1.55;;;;;;;;;;5108015;28;20506;-56
2022/06/29 06:11:39;;;;;;;4.35;2.22;;;;;;;;;;5108594;28;20073;-54
2022/06/29 06:14:05;;;;;;;4.50;2.08;;;;;;;;;;5107490;28;20035;-54
2022/06/29 06:16:30;;;;;;;8.20;1.88;;;;;;;;;;5102883;28;20165;-53
2022/06/29 06:18:55;;;;;;;3.58;1.88;;;;;;;;;;5108635;28;20108;-53
2022/06/29 06:21:21;;;;;;;4.75;2.60;;;;;;;;;;5106324;28;20047;-51
2022/06/29 06:23:47;;;;;;;2.95;1.77;;;;;;;;;;5105218;28;20053;-49
2022/06/29 06:26:12;;;;;;;5.80;1.77;;;;;;;;;;5102612;28;20051;-52
2022/06/29 06:28:38;;;;;;;12.93;4.25;;;;;;;;;;5104360;28;20044;-49
2022/06/29 06:31:03;;;;;;;4.03;2.92;;;;;;;;;;5106417;28;20074;-50
2022/06/29 06:33:28;;;;;;;9.50;3.25;;;;;;;;;;5104675;28;20032;-52
2022/06/29 06:35:53;;;;;;;8.60;2.45;;;;;;;;;;5106881;28;20075;-45
2022/06/29 06:38:19;;;;;;;2.70;1.42;;;;;;;;;;5098887;28;20054;-50
2022/06/29 06:43:28;;;;;;;1.92;1.42;;;;;;;;;;5104022;28;20367;-47
2022/06/29 06:45:53;;;;;;;2.70;1.80;;;;;;;;;;5106469;28;20585;-47
2022/06/29 06:48:18;;;;;;;3.78;3.00;;;;;;;;;;5104311;28;20044;-52
2022/06/29 06:50:44;;;;;;;23.98;5.55;;;;;;;;;;5087507;28;20418;-48
2022/06/29 06:53:09;;;;;;;6.78;4.95;;;;;;;;;;5106243;28;20047;-51
2022/06/29 06:55:35;;;;;;;21.83;8.80;;;;;;;;;;5104418;28;20444;-52
2022/06/29 06:58:01;;;;;;;12.20;6.82;;;;;;;;;;5106097;28;20142;-53
2022/06/29 07:00:27;;;;;;;12.80;7.22;;;;;;;;;;5104963;28;20046;-49
2022/06/29 07:02:52;;;;;;;9.20;5.65;;;;;;;;;;5105343;28;20430;-53
2022/06/29 07:05:19;;;;;;;5.43;3.33;;;;;;;;;;5103361;28;20479;-51
2022/06/29 07:07:45;;;;;;;16.20;5.10;;;;;;;;;;5105884;28;20048;-52
2022/06/29 07:10:10;;;;;;;11.25;6.40;;;;;;;;;;5106662;28;20664;-53
2022/06/29 07:12:35;;;;;;;9.20;5.80;;;;;;;;;;5104440;28;20061;-52
2022/06/29 07:15:00;;;;;;;9.82;4.50;;;;;;;;;;5105757;28;20079;-54
2022/06/29 07:17:26;;;;;;;5.13;4.03;;;;;;;;;;5105745;28;20061;-51
2022/06/29 07:19:51;;;;;;;4.38;3.60;;;;;;;;;;5101126;28;20167;-50
2022/06/29 07:22:17;;;;;;;4.57;3.58;;;;;;;;;;5104878;28;20399;-53
2022/06/29 07:24:42;;;;;;;5.50;3.65;;;;;;;;;;5104804;28;20100;-52
2022/06/29 07:27:07;;;;;;;13.13;2.90;;;;;;;;;;5104846;28;20136;-51
2022/06/29 07:29:33;;;;;;;4.85;3.92;;;;;;;;;;5104949;28;20051;-52
2022/06/29 07:31:58;;;;;;;18.05;4.13;;;;;;;;;;5105011;28;20557;-51
2022/06/29 07:34:24;;;;;;;6.45;2.88;;;;;;;;;;5104209;28;20052;-54
2022/06/29 07:36:49;;;;;;;4.10;1.63;;;;;;;;;;5103137;28;20119;-54
2022/06/29 07:39:14;;;;;;;3.03;1.92;;;;;;;;;;5087157;28;20071;-48
2022/06/29 07:41:41;;;;;;;3.22;1.95;;;;;;;;;;5104649;28;20468;-52
2022/06/29 07:44:06;;;;;;;7.55;5.40;;;;;;;;;;5101631;28;20274;-54
2022/06/29 07:46:32;;;;;;;22.42;5.22;;;;;;;;;;5106343;28;20463;-52
2022/06/29 07:48:57;;;;;;;2.88;2.50;;;;;;;;;;5104372;28;20051;-51
2022/06/29 07:51:22;;;;;;;4.53;2.08;;;;;;;;;;5103546;28;20047;-54
2022/06/29 07:53:48;;;;;;;8.30;1.55;;;;;;;;;;5102997;28;20135;-52
2022/06/29 07:56:13;;;;;;;5.68;3.55;;;;;;;;;;5102559;28;20056;-48
2022/06/29 07:58:38;;;;;;;10.68;2.08;;;;;;;;;;5104829;28;20099;-52
2022/06/29 08:01:04;;;;;;;5.43;3.05;;;;;;;;;;5105511;28;20389;-53
2022/06/29 08:03:31;;;;;;;4.57;1.73;;;;;;;;;;5105018;28;20176;-55
2022/06/29 08:05:56;;;;;;;2.28;1.52;;;;;;;;;;5103356;28;20615;-52
2022/06/29 08:08:22;;;;;;;10.70;1.83;;;;;;;;;;5104914;28;20563;-54
2022/06/29 08:10:47;;;;;;;4.30;2.45;;;;;;;;;;5103045;28;20047;-53
2022/06/29 08:13:12;;;;;;;4.00;2.08;;;;;;;;;;5104823;28;20047;-54
2022/06/29 08:15:38;;;;;;;8.57;1.35;;;;;;;;;;5102593;28;20419;-50
2022/06/29 08:18:03;;;;;;;9.48;2.95;;;;;;;;;;5102416;28;20618;-52
2022/06/29 08:20:28;;;;;;;2.22;1.55;;;;;;;;;;5101385;28;20071;-53
2022/06/29 08:22:54;;;;;;;5.63;2.95;;;;;;;;;;5102831;28;20044;-54
2022/06/29 08:25:19;;;;;;;5.90;3.22;;;;;;;;;;5105704;28;20603;-50
2022/06/29 08:27:49;;;;;;;1.08;0.70;;;;;;;;;;5104856;28;20052;-53
2022/06/29 08:30:14;;;;;;;2.08;1.10;;;;;;;;;;5101815;28;20545;-54
2022/06/29 08:32:41;;;;;;;2.50;1.40;;;;;;;;;;5098973;28;20044;-51
2022/06/29 08:35:07;;;;;;;2.15;1.48;;;;;;;;;;5100196;28;20640;-53
2022/06/29 08:37:32;;;;;;;4.70;1.80;;;;;;;;;;5105570;28;20130;-51
2022/06/29 08:39:58;;;;;;;15.85;2.20;;;;;;;;;;5103795;28;20624;-50
2022/06/29 08:42:24;;;;;;;5.70;3.53;;;;;;;;;;5102884;28;20043;-47
2022/06/29 08:44:50;;;;;;;3.58;1.60;;;;;;;;;;5103730;28;20498;-49
2022/06/29 08:47:15;;;;;;;16.67;1.17;;;;;;;;;;5109234;28;20110;-47
2022/06/29 08:49:41;;;;;;;3.90;1.77;;;;;;;;;;5108385;28;20043;-46
2022/06/29 08:52:07;;;;;;;22.25;2.90;;;;;;;;;;5105140;28;20054;-48
2022/06/29 08:54:37;;;;;;;4.35;2.28;;;;;;;;;;5104956;28;20068;-49
2022/06/29 08:57:03;;;;;;;2.60;1.15;;;;;;;;;;5100139;28;20123;-47
2022/06/29 08:59:29;;;;;;;3.40;1.17;;;;;;;;;;5108244;28;20048;-46
2022/06/29 09:01:54;;;;;;;7.82;1.63;;;;;;;;;;5108678;28;20655;-47
2022/06/29 09:04:19;;;;;;;3.67;1.90;;;;;;;;;;5106371;28;20036;-45
2022/06/29 09:06:45;;;;;;;6.63;1.67;;;;;;;;;;5104103;28;20127;-52
2022/06/29 09:09:11;;;;;;;1.52;1.02;;;;;;;;;;5105921;28;20462;-51
2022/06/29 09:11:39;;;;;;;8.63;1.40;;;;;;;;;;5108346;28;20521;-50
2022/06/29 09:14:09;;;;;;;8.90;1.65;;;;;;;;;;5103443;28;20039;-52
2022/06/29 09:16:55;;;;;;;7.03;1.08;;;;;;;;;;5107427;28;20563;-50
2022/06/29 09:19:21;;;;;;;1.75;0.77;;;;;;;;;;5108414;28;20040;-48
2022/06/29 09:21:47;;;;;;;2.08;1.02;;;;;;;;;;5104371;28;20433;-49
2022/06/29 09:24:13;;;;;;;1.58;0.47;;;;;;;;;;5104383;28;20146;-51
2022/06/29 09:26:39;;;;;;;1.50;0.68;;;;;;;;;;5106139;28;20207;-50
2022/06/29 09:29:11;;;;;;;2.50;1.30;;;;;;;;;;5107934;28;21016;-48
2022/06/29 09:31:36;;;;;;;2.20;1.58;;;;;;;;;;5106916;28;20083;-50
2022/06/29 09:34:18;;;;;;;3.50;1.33;;;;;;;;;;5106032;28;20070;-53
2022/06/29 09:36:55;;;;;;;3.92;1.35;;;;;;;;;;5106472;28;20139;-50
2022/06/29 09:39:56;;;;;;;4.75;2.65;;;;;;;;;;5104348;28;20039;-50
2022/06/29 09:42:22;;;;;;;2.08;0.63;;;;;;;;;;5045156;28;20673;-52
2022/06/29 09:44:48;;;;;;;6.20;1.05;;;;;;;;;;5090143;28;20130;-49
2022/06/29 09:47:19;;;;;;;6.18;2.50;;;;;;;;;;5104494;28;20832;-53
2022/06/29 09:49:45;;;;;;;5.00;1.35;;;;;;;;;;5106533;28;20051;-49
2022/06/29 09:52:11;;;;;;;3.17;2.45;;;;;;;;;;5105497;28;20387;-48
2022/06/29 09:54:36;;;;;;;1.48;1.05;;;;;;;;;;5107308;28;20047;-51
2022/06/29 09:57:02;;;;;;;9.98;1.60;;;;;;;;;;5107029;28;20058;-51
2022/06/29 10:02:34;;;;;;;3.95;1.67;;;;;;;;;;5108374;28;20095;-49
2022/06/29 10:05:20;;;;;;;5.63;2.78;;;;;;;;;;5103788;28;20058;-52
2022/06/29 10:07:47;;;;;;;16.17;1.98;;;;;;;;;;5108083;28;20047;-50
2022/06/29 10:10:14;;;;;;;3.08;1.38;;;;;;;;;;5104311;28;20089;-52
2022/06/29 10:16:00;;;;;;;1.13;0.77;;;;;;;;;;5107237;28;20694;-52
2022/06/29 10:18:31;;;;;;;2.88;0.95;;;;;;;;;;5106565;28;20043;-49
2022/06/29 10:20:57;;;;;;;2.67;1.20;;;;;;;;;;5102840;28;20048;-51
2022/06/29 10:23:41;;;;;;;2.20;1.02;;;;;;;;;;5103835;28;20518;-49
2022/06/29 10:26:35;;;;;;;6.05;2.75;;;;;;;;;;5106503;28;20067;-49
2022/06/29 10:29:10;;;;;;;2.75;0.93;;;;;;;;;;5102807;28;20059;-51
2022/06/29 10:31:54;;;;;;;5.03;0.60;;;;;;;;;;5106115;28;20086;-48
2022/06/29 10:34:28;;;;;;;27.50;1.67;;;;;;;;;;5102240;28;20051;-51
2022/06/29 10:37:03;;;;;;;1.33;0.73;;;;;;;;;;5105760;28;20557;-50
2022/06/29 10:39:37;;;;;;;1.10;0.80;;;;;;;;;;5105291;28;20105;-51
2022/06/29 10:44:59;;;;;;;1.92;1.20;;;;;;;;;;5103762;28;20132;-51
2022/06/29 10:47:25;;;;;;;5.32;1.30;;;;;;;;;;5105913;28;20131;-52
2022/06/29 10:50:09;;;;;;;2.03;1.00;;;;;;;;;;5105195;28;20073;-52
2022/06/29 10:52:36;;;;;;;1.88;1.23;;;;;;;;;;5107216;28;20056;-49
2022/06/29 10:55:02;;;;;;;1.02;0.50;;;;;;;;;;5106466;28;20047;-51
2022/06/29 10:57:32;;;;;;;8.55;1.67;;;;;;;;;;5105926;28;20028;-49
2022/06/29 10:59:58;;;;;;;8.07;1.20;;;;;;;;;;5104142;28;20100;-52
2022/06/29 11:02:23;;;;;;;3.75;1.55;;;;;;;;;;5106369;28;20235;-50
2022/06/29 11:04:48;;;;;;;1.70;1.00;;;;;;;;;;5104538;28;20047;-50
2022/06/29 11:12:49;;;;;;;9.32;1.95;;;;;;;;;;5102280;28;20134;-50
2022/06/29 11:15:39;;;;;;;2.67;1.75;;;;;;;;;;5099513;28;20180;-47
2022/06/29 11:18:05;;;;;;;2.45;0.90;;;;;;;;;;5106428;28;20057;-47
2022/06/29 11:20:30;;;;;;;0.60;0.40;;;;;;;;;;5103647;28;20594;-50
2022/06/29 11:22:56;;;;;;;2.13;1.50;;;;;;;;;;5104196;28;20035;-47
2022/06/29 11:25:22;;;;;;;2.30;1.95;;;;;;;;;;5102129;28;20048;-51
2022/06/29 11:27:48;;;;;;;3.03;1.52;;;;;;;;;;5104361;28;20044;-52
2022/06/29 11:30:18;;;;;;;5.78;1.75;;;;;;;;;;5100503;28;20491;-51
2022/06/29 11:32:45;;;;;;;1.73;1.15;;;;;;;;;;5106653;28;20078;-50
2022/06/29 11:35:11;;;;;;;2.03;1.15;;;;;;;;;;5101073;28;20396;-50
2022/06/29 11:37:37;;;;;;;2.70;0.80;;;;;;;;;;5104661;28;20055;-51
2022/06/29 11:40:03;;;;;;;2.42;1.00;;;;;;;;;;5102539;28;20558;-51
2022/06/29 11:45:18;;;;;;;3.20;1.63;;;;;;;;;;5104665;28;20050;-49
2022/06/29 11:47:53;;;;;;;3.55;1.27;;;;;;;;;;5104159;28;20039;-51
2022/06/29 11:50:19;;;;;;;4.85;1.38;;;;;;;;;;5103972;28;20361;-48
2022/06/29 11:52:45;;;;;;;5.55;1.52;;;;;;;;;;5103693;28;20590;-52
2022/06/29 11:55:10;;;;;;;4.68;1.20;;;;;;;;;;5104658;28;20087;-50
2022/06/29 11:57:35;;;;;;;1.15;0.70;;;;;;;;;;5088529;28;20649;-53
2022/06/29 12:00:08;;;;;;;3.67;1.33;;;;;;;;;;5105493;28;20872;-53
2022/06/29 12:02:36;;;;;;;2.17;0.63;;;;;;;;;;5102748;28;20495;-50
2022/06/29 12:05:02;;;;;;;4.13;1.30;;;;;;;;;;5103083;28;20047;-52
2022/06/29 12:07:29;;;;;;;2.45;0.85;;;;;;;;;;5103668;28;20046;-52
2022/06/29 12:09:54;;;;;;;1.40;0.88;;;;;;;;;;5104780;28;20052;-50
2022/06/29 12:12:20;;;;;;;0.80;0.47;;;;;;;;;;5106000;28;20059;-49
2022/06/29 12:14:45;;;;;;;4.00;1.48;;;;;;;;;;5104368;28;20055;-48
2022/06/29 12:17:11;;;;;;;1.52;0.88;;;;;;;;;;5104987;28;20048;-51
2022/06/29 12:19:40;;;;;;;3.60;0.65;;;;;;;;;;5104557;28;20574;-49
2022/06/29 12:22:05;;;;;;;3.83;1.33;;;;;;;;;;5108227;28;20063;-50
2022/06/29 12:24:31;;;;;;;6.18;1.70;;;;;;;;;;5109126;28;20071;-49
2022/06/29 12:26:56;;;;;;;4.55;1.88;;;;;;;;;;5107947;28;20032;-50
2022/06/29 12:29:21;;;;;;;3.88;0.88;;;;;;;;;;5107939;28;20096;-52
2022/06/29 12:31:47;;;;;;;2.75;1.70;;;;;;;;;;5109357;28;20662;-50
2022/06/29 12:34:13;;;;;;;6.55;2.50;;;;;;;;;;5104850;28;20114;-50
2022/06/29 12:36:38;;;;;;;3.72;1.23;;;;;;;;;;5107444;28;20494;-51
2022/06/29 12:39:04;;;;;;;2.72;1.02;;;;;;;;;;5108564;28;20042;-50
2022/06/29 12:41:31;;;;;;;3.45;1.48;;;;;;;;;;5108679;28;20032;-51
2022/06/29 12:43:56;;;;;;;1.70;0.68;;;;;;;;;;5106061;28;20043;-51
2022/06/29 12:46:22;;;;;;;1.27;0.80;;;;;;;;;;5107558;28;20229;-52
2022/06/29 12:48:47;;;;;;;1.90;0.60;;;;;;;;;;5108236;28;20105;-52
2022/06/29 12:51:12;;;;;;;2.08;1.05;;;;;;;;;;5106073;28;20063;-50
2022/06/29 12:53:38;;;;;;;4.30;1.20;;;;;;;;;;5106862;28;20402;-51
2022/06/29 12:56:04;;;;;;;3.10;0.85;;;;;;;;;;5109570;28;20452;-49
2022/06/29 12:58:29;;;;;;;0.90;0.60;;;;;;;;;;5105308;28;20039;-50
2022/06/29 13:00:54;;;;;;;2.63;0.95;;;;;;;;;;5107621;28;20047;-49
2022/06/29 13:03:20;;;;;;;5.82;0.73;;;;;;;;;;5106900;28;20040;-51
2022/06/29 13:05:46;;;;;;;1.88;0.75;;;;;;;;;;5106595;28;20032;-52
2022/06/29 13:08:11;;;;;;;2.03;1.33;;;;;;;;;;5104404;28;20051;-49
2022/06/29 13:10:37;;;;;;;7.85;1.38;;;;;;;;;;5104506;28;20087;-51
2022/06/29 13:13:03;;;;;;;0.93;0.75;;;;;;;;;;5106801;28;20300;-49
2022/06/29 13:15:29;;;;;;;2.53;1.25;;;;;;;;;;5106994;28;20073;-51
2022/06/29 13:17:54;;;;;;;2.25;0.98;;;;;;;;;;5106478;28;20108;-50
2022/06/29 13:20:20;;;;;;;5.30;1.92;;;;;;;;;;5107377;28;20130;-52
2022/06/29 13:22:45;;;;;;;3.22;1.40;;;;;;;;;;5106500;28;20044;-52
2022/06/29 13:25:11;;;;;;;5.47;2.08;;;;;;;;;;5107948;28;20051;-50
2022/06/29 13:27:36;;;;;;;3.42;1.48;;;;;;;;;;5107311;28;20141;-52
2022/06/29 13:30:02;;;;;;;1.35;0.70;;;;;;;;;;5106165;28;20490;-51
2022/06/29 13:32:27;;;;;;;3.33;1.35;;;;;;;;;;5103396;28;20082;-52
2022/06/29 13:34:53;;;;;;;1.95;1.25;;;;;;;;;;5105486;28;20043;-50
2022/06/29 13:37:18;;;;;;;5.50;1.40;;;;;;;;;;5107842;28;20103;-53
2022/06/29 13:39:43;;;;;;;1.85;0.90;;;;;;;;;;5106492;28;20040;-52
2022/06/29 13:42:09;;;;;;;10.80;0.88;;;;;;;;;;5105620;28;20047;-50
2022/06/29 13:44:34;;;;;;;5.40;1.40;;;;;;;;;;5104460;28;20040;-52
2022/06/29 13:47:00;;;;;;;5.00;1.08;;;;;;;;;;5105021;28;20059;-52
2022/06/29 13:49:25;;;;;;;1.10;0.70;;;;;;;;;;5104621;28;20135;-51
2022/06/29 13:51:50;;;;;;;1.83;0.77;;;;;;;;;;5105866;28;20041;-49
2022/06/29 13:54:16;;;;;;;3.00;1.60;;;;;;;;;;5107563;28;20062;-51
2022/06/29 13:56:41;;;;;;;3.90;1.20;;;;;;;;;;5106047;28;20415;-53
2022/06/29 13:59:06;;;;;;;1.20;1.08;;;;;;;;;;5107394;28;20829;-48
2022/06/29 14:01:32;;;;;;;2.17;1.02;;;;;;;;;;5107689;28;20052;-51
2022/06/29 14:03:57;;;;;;;5.40;1.63;;;;;;;;;;5108105;28;20067;-51
2022/06/29 14:06:23;;;;;;;1.83;1.20;;;;;;;;;;5105741;28;20442;-49
2022/06/29 14:08:48;;;;;;;1.88;0.90;;;;;;;;;;5107782;28;20470;-52
2022/06/29 14:11:14;;;;;;;2.75;1.08;;;;;;;;;;5104034;28;20035;-53
2022/06/29 14:13:39;;;;;;;3.80;1.33;;;;;;;;;;5106555;28;20100;-53
2022/06/29 14:16:04;;;;;;;5.68;1.15;;;;;;;;;;5107214;28;20455;-54
2022/06/29 14:18:30;;;;;;;0.63;0.50;;;;;;;;;;5107080;28;20050;-51
2022/06/29 14:20:57;;;;;;;1.77;1.38;;;;;;;;;;5105109;28;20040;-51
2022/06/29 14:23:22;;;;;;;3.40;1.25;;;;;;;;;;5105349;28;20048;-50
2022/06/29 14:25:50;;;;;;;5.60;2.22;;;;;;;;;;5106089;28;20743;-52
2022/06/29 14:28:15;;;;;;;2.75;1.42;;;;;;;;;;5107366;28;20055;-52
2022/06/29 14:30:40;;;;;;;1.70;1.10;;;;;;;;;;5104711;28;20040;-53
2022/06/29 14:33:05;;;;;;;1.88;1.10;;;;;;;;;;5106344;28;20456;-47
2022/06/29 14:35:31;;;;;;;1.88;0.95;;;;;;;;;;5104025;28;20048;-48
2022/06/29 14:37:56;;;;;;;3.05;1.42;;;;;;;;;;5105376;28;20100;-47
2022/06/29 14:40:22;;;;;;;1.70;0.77;;;;;;;;;;5107961;28;20045;-48
2022/06/29 14:42:47;;;;;;;4.68;1.67;;;;;;;;;;5104186;28;20490;-45
2022/06/29 14:45:12;;;;;;;10.80;1.30;;;;;;;;;;5104709;28;20105;-50
2022/06/29 14:47:37;;;;;;;0.93;0.77;;;;;;;;;;5104573;28;20051;-48
2022/06/29 14:50:03;;;;;;;4.35;1.25;;;;;;;;;;5105906;28;20050;-48
2022/06/29 14:52:30;;;;;;;4.90;2.38;;;;;;;;;;5106797;28;20056;-47
2022/06/29 14:54:56;;;;;;;4.63;1.02;;;;;;;;;;5103363;28;20040;-52
2022/06/29 14:57:22;;;;;;;1.92;1.13;;;;;;;;;;5104321;28;20414;-47
2022/06/29 14:59:48;;;;;;;1.98;0.82;;;;;;;;;;5101745;28;20042;-50
2022/06/29 15:02:13;;;;;;;1.55;0.80;;;;;;;;;;5100585;28;20445;-52